Time;durP1;ratioP1;P1;durP2;ratioP2;P2;SDS_P1;SDS_P2;PMS_P1;PMS_P2;Temp;Humidity;BMP_temperature;BMP_pressure;BME280_temperature;BME280_humidity;BME280_pressure;Samples;Min_cycle;Max_cycle;Signal;HPM_P1;HPM_P2
2022/07/21 00:01:08;;;;;;;3.35;2.03;;;;;;;;;;5131026;27;20043;-56
2022/07/21 00:03:34;;;;;;;3.75;1.80;;;;;;;;;;5130277;27;20039;-56
2022/07/21 00:06:00;;;;;;;4.47;2.30;;;;;;;;;;5129783;27;20051;-56
2022/07/21 00:08:26;;;;;;;4.50;2.47;;;;;;;;;;5122251;27;20039;-56
2022/07/21 00:10:52;;;;;;;3.47;1.92;;;;;;;;;;5127328;27;20039;-57
2022/07/21 00:13:18;;;;;;;4.15;1.90;;;;;;;;;;5130470;27;20140;-56
2022/07/21 00:15:44;;;;;;;3.58;2.00;;;;;;;;;;5131553;27;20047;-56
2022/07/21 00:18:11;;;;;;;3.80;2.50;;;;;;;;;;5138869;27;20087;-56
2022/07/21 00:20:37;;;;;;;3.55;1.95;;;;;;;;;;5149610;27;20130;-56
2022/07/21 00:23:03;;;;;;;4.57;2.00;;;;;;;;;;5136605;27;20046;-57
2022/07/21 00:25:29;;;;;;;3.35;1.80;;;;;;;;;;5121127;27;20126;-57
2022/07/21 00:27:55;;;;;;;4.10;2.17;;;;;;;;;;5133307;27;20030;-57
2022/07/21 00:30:21;;;;;;;3.75;1.90;;;;;;;;;;5142040;27;20505;-57
2022/07/21 00:32:48;;;;;;;4.18;2.10;;;;;;;;;;5144146;27;20054;-56
2022/07/21 00:35:14;;;;;;;4.35;2.40;;;;;;;;;;5135039;27;20058;-57
2022/07/21 00:37:40;;;;;;;3.55;1.85;;;;;;;;;;5135287;27;20046;-57
2022/07/21 00:40:08;;;;;;;3.55;1.98;;;;;;;;;;5130059;27;20066;-57
2022/07/21 00:42:34;;;;;;;6.10;2.45;;;;;;;;;;5127368;27;20058;-57
2022/07/21 00:45:01;;;;;;;4.25;1.85;;;;;;;;;;5138498;27;20034;-56
2022/07/21 00:47:28;;;;;;;3.95;2.40;;;;;;;;;;5137873;27;20046;-56
2022/07/21 00:49:54;;;;;;;3.75;2.10;;;;;;;;;;5132079;27;20045;-57
2022/07/21 00:52:21;;;;;;;3.25;1.85;;;;;;;;;;5128327;27;20100;-56
2022/07/21 00:54:47;;;;;;;4.68;2.03;;;;;;;;;;5133884;27;20463;-57
2022/07/21 00:57:15;;;;;;;2.88;1.70;;;;;;;;;;5124363;27;20114;-56
2022/07/21 00:59:42;;;;;;;4.05;1.60;;;;;;;;;;5137998;27;20070;-57
2022/07/21 01:02:08;;;;;;;3.67;2.15;;;;;;;;;;5149655;27;20110;-57
2022/07/21 01:04:34;;;;;;;2.50;1.88;;;;;;;;;;5130617;27;20050;-56
2022/07/21 01:07:03;;;;;;;2.30;1.65;;;;;;;;;;5136552;27;20435;-57
2022/07/21 01:09:30;;;;;;;4.07;1.83;;;;;;;;;;5148671;27;20129;-56
2022/07/21 01:11:56;;;;;;;3.15;1.85;;;;;;;;;;5125786;27;20087;-56
2022/07/21 01:14:22;;;;;;;3.03;1.67;;;;;;;;;;5123717;27;20043;-57
2022/07/21 01:16:49;;;;;;;2.97;1.90;;;;;;;;;;5134987;27;20153;-57
2022/07/21 01:19:15;;;;;;;3.75;1.80;;;;;;;;;;5149596;27;20043;-57
2022/07/21 01:21:42;;;;;;;4.45;1.92;;;;;;;;;;5148720;27;20050;-56
2022/07/21 01:24:09;;;;;;;2.65;1.60;;;;;;;;;;5134197;27;20035;-56
2022/07/21 01:26:48;;;;;;;3.53;1.85;;;;;;;;;;5130188;27;20047;-56
2022/07/21 01:29:15;;;;;;;2.47;1.70;;;;;;;;;;5147624;27;20042;-56
2022/07/21 01:31:41;;;;;;;2.17;1.60;;;;;;;;;;5150070;27;20039;-57
2022/07/21 01:34:08;;;;;;;3.03;1.67;;;;;;;;;;5140854;27;20082;-56
2022/07/21 01:36:34;;;;;;;3.65;2.38;;;;;;;;;;5135744;27;20071;-56
2022/07/21 01:41:45;;;;;;;3.08;1.95;;;;;;;;;;5154019;27;20146;-56
2022/07/21 01:44:12;;;;;;;3.25;1.70;;;;;;;;;;5143610;27;20058;-57
2022/07/21 01:46:46;;;;;;;3.15;1.70;;;;;;;;;;5141614;27;20496;-56
2022/07/21 01:49:13;;;;;;;3.80;1.85;;;;;;;;;;5128321;27;20050;-56
2022/07/21 01:51:39;;;;;;;2.35;1.85;;;;;;;;;;5143262;27;20050;-57
2022/07/21 01:54:06;;;;;;;2.65;1.83;;;;;;;;;;5153928;27;20128;-56
2022/07/21 01:56:33;;;;;;;3.88;1.98;;;;;;;;;;5133376;27;20043;-57
2022/07/21 01:58:59;;;;;;;2.53;1.73;;;;;;;;;;5132763;27;20050;-56
2022/07/21 02:01:26;;;;;;;2.97;1.75;;;;;;;;;;5133119;27;20153;-56
2022/07/21 02:03:52;;;;;;;4.20;2.17;;;;;;;;;;5133548;27;20151;-57
2022/07/21 02:06:18;;;;;;;3.13;1.80;;;;;;;;;;5151944;27;20042;-57
2022/07/21 02:08:44;;;;;;;3.38;1.90;;;;;;;;;;5153814;27;20049;-56
2022/07/21 02:11:12;;;;;;;3.45;2.00;;;;;;;;;;5138792;27;20043;-57
2022/07/21 02:13:38;;;;;;;3.58;1.90;;;;;;;;;;5153313;27;20055;-56
2022/07/21 02:16:04;;;;;;;2.42;1.70;;;;;;;;;;5137892;27;20054;-56
2022/07/21 02:18:30;;;;;;;3.00;1.80;;;;;;;;;;5133314;27;20122;-56
2022/07/21 02:20:56;;;;;;;3.17;1.70;;;;;;;;;;5131597;27;20058;-56
2022/07/21 02:23:23;;;;;;;3.00;1.80;;;;;;;;;;5132784;27;20391;-56
2022/07/21 02:25:50;;;;;;;2.92;1.92;;;;;;;;;;5137514;27;20031;-57
2022/07/21 02:28:16;;;;;;;3.72;2.08;;;;;;;;;;5134466;27;20176;-56
2022/07/21 02:30:42;;;;;;;4.38;2.03;;;;;;;;;;5147476;27;20042;-56
2022/07/21 02:33:08;;;;;;;3.67;1.83;;;;;;;;;;5153598;27;20114;-56
2022/07/21 02:35:34;;;;;;;3.50;2.05;;;;;;;;;;5145512;27;20047;-56
2022/07/21 02:38:00;;;;;;;2.70;1.70;;;;;;;;;;5131508;27;20039;-57
2022/07/21 02:40:27;;;;;;;3.95;1.95;;;;;;;;;;5132985;27;20151;-57
2022/07/21 02:42:53;;;;;;;3.33;1.70;;;;;;;;;;5132370;27;20047;-56
2022/07/21 02:45:19;;;;;;;2.90;1.80;;;;;;;;;;5135151;27;20130;-56
2022/07/21 02:47:59;;;;;;;3.95;1.90;;;;;;;;;;5152976;27;20482;-56
2022/07/21 02:50:26;;;;;;;3.80;2.20;;;;;;;;;;5152162;27;20042;-57
2022/07/21 02:52:56;;;;;;;3.05;1.95;;;;;;;;;;5131449;27;20078;-57
2022/07/21 02:55:23;;;;;;;2.85;1.75;;;;;;;;;;5132303;27;20406;-57
2022/07/21 02:57:49;;;;;;;4.38;1.98;;;;;;;;;;5131946;27;20043;-57
2022/07/21 03:00:15;;;;;;;4.00;1.95;;;;;;;;;;5132317;27;20372;-57
2022/07/21 03:02:41;;;;;;;2.53;1.50;;;;;;;;;;5132401;27;20759;-57
2022/07/21 03:05:08;;;;;;;2.95;1.67;;;;;;;;;;5133716;27;20847;-56
2022/07/21 03:07:34;;;;;;;2.63;1.70;;;;;;;;;;5131369;27;20051;-57
2022/07/21 03:10:00;;;;;;;2.60;1.80;;;;;;;;;;5131860;27;20047;-57
2022/07/21 03:12:26;;;;;;;3.55;1.75;;;;;;;;;;5137718;27;20397;-57
2022/07/21 03:14:52;;;;;;;3.20;1.73;;;;;;;;;;5152316;27;20086;-57
2022/07/21 03:17:18;;;;;;;3.30;1.90;;;;;;;;;;5152722;27;20054;-57
2022/07/21 03:19:44;;;;;;;5.07;2.08;;;;;;;;;;5152436;27;20047;-57
2022/07/21 03:22:10;;;;;;;4.28;1.80;;;;;;;;;;5150472;27;20522;-57
2022/07/21 03:24:36;;;;;;;2.75;1.85;;;;;;;;;;5152548;27;20471;-57
2022/07/21 03:27:03;;;;;;;3.97;1.77;;;;;;;;;;5143906;27;20538;-57
2022/07/21 03:29:29;;;;;;;2.88;1.60;;;;;;;;;;5152666;27;20043;-57
2022/07/21 03:31:55;;;;;;;2.78;1.92;;;;;;;;;;5151834;27;20038;-57
2022/07/21 03:34:21;;;;;;;3.58;1.77;;;;;;;;;;5152312;27;20090;-56
2022/07/21 03:36:47;;;;;;;2.65;1.60;;;;;;;;;;5150407;27;20122;-57
2022/07/21 03:39:13;;;;;;;2.33;1.70;;;;;;;;;;5140188;27;20035;-57
2022/07/21 03:41:39;;;;;;;1.83;1.63;;;;;;;;;;5139709;27;20042;-56
2022/07/21 03:44:05;;;;;;;2.90;1.67;;;;;;;;;;5122836;27;20082;-57
2022/07/21 03:46:31;;;;;;;3.15;2.00;;;;;;;;;;5133238;27;20082;-57
2022/07/21 03:48:57;;;;;;;4.47;2.20;;;;;;;;;;5151204;27;20038;-57
2022/07/21 03:51:23;;;;;;;3.78;2.10;;;;;;;;;;5140745;27;20043;-57
2022/07/21 03:53:49;;;;;;;3.35;1.80;;;;;;;;;;5132073;27;20042;-57
2022/07/21 03:56:15;;;;;;;3.25;1.80;;;;;;;;;;5134658;27;20035;-57
2022/07/21 03:58:41;;;;;;;2.88;1.65;;;;;;;;;;5131157;27;20075;-57
2022/07/21 04:01:07;;;;;;;4.65;2.00;;;;;;;;;;5129780;27;20529;-57
2022/07/21 04:03:35;;;;;;;3.50;1.95;;;;;;;;;;5148892;27;20080;-57
2022/07/21 04:06:01;;;;;;;2.15;1.60;;;;;;;;;;5149459;27;20126;-56
2022/07/21 04:08:28;;;;;;;2.88;1.70;;;;;;;;;;5151569;27;20191;-57
2022/07/21 04:10:54;;;;;;;3.60;1.83;;;;;;;;;;5142879;27;20078;-56
2022/07/21 04:13:20;;;;;;;3.97;1.85;;;;;;;;;;5130674;27;20135;-56
2022/07/21 04:15:46;;;;;;;3.60;2.00;;;;;;;;;;5130445;27;20043;-57
2022/07/21 04:18:12;;;;;;;3.15;1.55;;;;;;;;;;5148389;27;20106;-57
2022/07/21 04:20:38;;;;;;;2.50;1.85;;;;;;;;;;5128666;27;20045;-57
2022/07/21 04:23:04;;;;;;;2.63;1.50;;;;;;;;;;5129658;27;20047;-57
2022/07/21 04:25:30;;;;;;;2.50;1.58;;;;;;;;;;5149868;27;20031;-57
2022/07/21 04:27:57;;;;;;;2.53;1.60;;;;;;;;;;5134125;27;20046;-56
2022/07/21 04:30:24;;;;;;;3.88;2.00;;;;;;;;;;5130687;28;20047;-57
2022/07/21 04:32:51;;;;;;;4.18;2.00;;;;;;;;;;5137667;27;20134;-57
2022/07/21 04:35:17;;;;;;;3.08;1.90;;;;;;;;;;5150042;27;20507;-57
2022/07/21 04:37:44;;;;;;;2.25;1.50;;;;;;;;;;5150226;27;20180;-57
2022/07/21 04:40:11;;;;;;;3.50;2.00;;;;;;;;;;5143951;27;20043;-57
2022/07/21 04:42:37;;;;;;;2.33;1.40;;;;;;;;;;5151193;27;20042;-56
2022/07/21 04:45:04;;;;;;;3.78;2.00;;;;;;;;;;5132140;27;20042;-57
2022/07/21 04:47:30;;;;;;;1.92;1.48;;;;;;;;;;5147853;27;20039;-57
2022/07/21 04:49:56;;;;;;;2.95;1.75;;;;;;;;;;5132871;27;20047;-57
2022/07/21 04:52:22;;;;;;;4.80;1.73;;;;;;;;;;5131212;27;20041;-57
2022/07/21 04:54:48;;;;;;;2.28;1.48;;;;;;;;;;5151353;27;20046;-57
2022/07/21 04:57:14;;;;;;;2.78;1.92;;;;;;;;;;5151103;27;20041;-57
2022/07/21 04:59:41;;;;;;;4.65;2.28;;;;;;;;;;5136641;27;20050;-57
2022/07/21 05:02:07;;;;;;;3.03;1.90;;;;;;;;;;5119407;27;20142;-57
2022/07/21 05:04:33;;;;;;;2.85;1.85;;;;;;;;;;5150568;27;20078;-57
2022/07/21 05:06:59;;;;;;;2.53;1.52;;;;;;;;;;5143086;27;20053;-57
2022/07/21 05:09:25;;;;;;;2.88;1.90;;;;;;;;;;5134833;27;20035;-56
2022/07/21 05:11:51;;;;;;;4.50;2.13;;;;;;;;;;5132517;27;20049;-56
2022/07/21 05:14:17;;;;;;;2.72;1.55;;;;;;;;;;5133121;27;20105;-56
2022/07/21 05:16:43;;;;;;;2.97;1.83;;;;;;;;;;5133495;27;20487;-57
2022/07/21 05:19:11;;;;;;;3.45;1.80;;;;;;;;;;5124952;27;20057;-56
2022/07/21 05:21:37;;;;;;;3.13;1.80;;;;;;;;;;5147397;27;20567;-57
2022/07/21 05:24:03;;;;;;;3.38;1.90;;;;;;;;;;5133594;27;20035;-56
2022/07/21 05:26:29;;;;;;;3.72;2.10;;;;;;;;;;5134154;27;20043;-57
2022/07/21 05:28:55;;;;;;;2.47;1.70;;;;;;;;;;5123241;27;20502;-57
2022/07/21 05:31:21;;;;;;;3.97;2.10;;;;;;;;;;5144470;27;20509;-57
2022/07/21 05:33:47;;;;;;;2.75;1.85;;;;;;;;;;5148303;27;20537;-56
2022/07/21 05:36:13;;;;;;;3.75;2.00;;;;;;;;;;5143967;27;20551;-56
2022/07/21 05:38:39;;;;;;;3.10;1.80;;;;;;;;;;5134148;27;20112;-57
2022/07/21 05:41:05;;;;;;;2.38;1.63;;;;;;;;;;5146179;27;20055;-57
2022/07/21 05:43:32;;;;;;;2.58;1.77;;;;;;;;;;5133716;27;20497;-56
2022/07/21 05:45:58;;;;;;;2.83;1.67;;;;;;;;;;5133340;27;20085;-57
2022/07/21 05:48:24;;;;;;;3.00;1.92;;;;;;;;;;5133252;27;20051;-57
2022/07/21 05:50:50;;;;;;;3.13;1.90;;;;;;;;;;5146354;27;20046;-57
2022/07/21 05:53:16;;;;;;;3.47;1.85;;;;;;;;;;5133054;27;20047;-57
2022/07/21 05:55:42;;;;;;;4.32;2.15;;;;;;;;;;5151660;27;20466;-57
2022/07/21 05:58:08;;;;;;;3.60;2.13;;;;;;;;;;5136749;27;20479;-56
2022/07/21 06:00:35;;;;;;;4.53;2.20;;;;;;;;;;5132964;27;20039;-57
2022/07/21 06:03:01;;;;;;;3.53;2.05;;;;;;;;;;5133195;27;20043;-57
2022/07/21 06:05:27;;;;;;;3.70;2.20;;;;;;;;;;5132006;27;20043;-57
2022/07/21 06:07:53;;;;;;;3.97;2.22;;;;;;;;;;5132341;27;20039;-56
2022/07/21 06:10:19;;;;;;;3.08;2.13;;;;;;;;;;5133039;27;20047;-58
2022/07/21 06:12:45;;;;;;;5.10;2.55;;;;;;;;;;5114638;27;20425;-55
2022/07/21 06:15:12;;;;;;;3.97;1.98;;;;;;;;;;5132307;27;20366;-56
2022/07/21 06:17:43;;;;;;;3.53;2.13;;;;;;;;;;5135126;27;20122;-56
2022/07/21 06:20:09;;;;;;;4.22;2.35;;;;;;;;;;5127635;27;20050;-56
2022/07/21 06:22:35;;;;;;;3.25;1.90;;;;;;;;;;5134337;27;20078;-56
2022/07/21 06:25:01;;;;;;;4.15;2.20;;;;;;;;;;5132235;27;20027;-56
2022/07/21 06:27:28;;;;;;;3.83;2.30;;;;;;;;;;5115504;27;20382;-56
2022/07/21 06:29:56;;;;;;;3.30;1.98;;;;;;;;;;5132780;27;20154;-55
2022/07/21 06:32:23;;;;;;;4.40;2.20;;;;;;;;;;5132539;27;20562;-55
2022/07/21 06:34:49;;;;;;;4.50;2.45;;;;;;;;;;5138527;27;20367;-55
2022/07/21 06:37:15;;;;;;;3.47;2.05;;;;;;;;;;5112256;27;20375;-55
2022/07/21 06:39:41;;;;;;;4.18;2.05;;;;;;;;;;5133033;27;20490;-55
2022/07/21 06:42:07;;;;;;;4.32;2.58;;;;;;;;;;5137965;27;20111;-55
2022/07/21 06:44:34;;;;;;;3.80;2.13;;;;;;;;;;5153573;27;20125;-55
2022/07/21 06:47:04;;;;;;;3.70;1.98;;;;;;;;;;5152786;27;20418;-55
2022/07/21 06:49:31;;;;;;;5.82;2.45;;;;;;;;;;5152995;27;20051;-55
2022/07/21 06:51:57;;;;;;;3.40;2.13;;;;;;;;;;5151203;27;20062;-55
2022/07/21 06:54:23;;;;;;;3.58;2.08;;;;;;;;;;5145817;27;20039;-55
2022/07/21 06:56:49;;;;;;;4.47;2.33;;;;;;;;;;5138575;27;20566;-55
2022/07/21 06:59:15;;;;;;;4.35;2.20;;;;;;;;;;5121561;27;20043;-55
2022/07/21 07:01:41;;;;;;;3.20;1.95;;;;;;;;;;5132116;27;20491;-56
2022/07/21 07:04:08;;;;;;;3.88;2.03;;;;;;;;;;5113696;27;20420;-56
2022/07/21 07:06:34;;;;;;;4.05;2.03;;;;;;;;;;5130380;27;20106;-56
2022/07/21 07:09:00;;;;;;;5.00;2.47;;;;;;;;;;5131937;27;20474;-55
2022/07/21 07:11:26;;;;;;;3.63;2.10;;;;;;;;;;5131687;27;20039;-55
2022/07/21 07:13:52;;;;;;;3.95;2.30;;;;;;;;;;5131313;27;20077;-55
2022/07/21 07:16:18;;;;;;;4.00;2.30;;;;;;;;;;5131200;27;20051;-55
2022/07/21 07:18:44;;;;;;;3.53;2.28;;;;;;;;;;5142961;27;20126;-55
2022/07/21 07:21:10;;;;;;;3.80;2.38;;;;;;;;;;5130167;27;20051;-55
2022/07/21 07:23:36;;;;;;;4.43;2.35;;;;;;;;;;5113749;27;20043;-55
2022/07/21 07:26:02;;;;;;;4.78;2.63;;;;;;;;;;5131357;27;20035;-55
2022/07/21 07:28:28;;;;;;;4.22;2.45;;;;;;;;;;5131465;27;20081;-55
2022/07/21 07:30:54;;;;;;;6.20;2.58;;;;;;;;;;5131235;27;20100;-55
2022/07/21 07:33:21;;;;;;;5.57;2.05;;;;;;;;;;5133358;27;20048;-55
2022/07/21 07:35:47;;;;;;;4.55;2.35;;;;;;;;;;5127603;27;20043;-55
2022/07/21 07:38:15;;;;;;;4.47;2.13;;;;;;;;;;5128968;27;20071;-55
2022/07/21 07:40:41;;;;;;;3.03;2.00;;;;;;;;;;5128926;27;20043;-55
2022/07/21 07:43:07;;;;;;;4.07;2.20;;;;;;;;;;5130395;27;20479;-55
2022/07/21 07:45:34;;;;;;;3.80;2.20;;;;;;;;;;5129466;27;20039;-55
2022/07/21 07:48:01;;;;;;;4.30;2.15;;;;;;;;;;5112177;27;20507;-55
2022/07/21 07:50:28;;;;;;;5.82;2.38;;;;;;;;;;5128664;27;20430;-55
2022/07/21 07:52:54;;;;;;;3.08;2.15;;;;;;;;;;5100045;27;20050;-55
2022/07/21 07:55:20;;;;;;;5.50;2.55;;;;;;;;;;5129624;27;20043;-55
2022/07/21 07:57:46;;;;;;;3.55;2.10;;;;;;;;;;5129797;27;20039;-55
2022/07/21 08:00:14;;;;;;;4.70;2.42;;;;;;;;;;5128824;27;20050;-55
2022/07/21 08:02:40;;;;;;;4.43;2.20;;;;;;;;;;5127949;27;20074;-55
2022/07/21 08:05:08;;;;;;;4.95;2.70;;;;;;;;;;5128414;27;20095;-55
2022/07/21 08:07:34;;;;;;;5.72;2.50;;;;;;;;;;5130562;27;20051;-55
2022/07/21 08:10:00;;;;;;;5.63;2.90;;;;;;;;;;5128969;27;20058;-55
2022/07/21 08:12:26;;;;;;;4.60;2.20;;;;;;;;;;5111980;27;20039;-55
2022/07/21 08:14:52;;;;;;;5.40;2.70;;;;;;;;;;5133490;27;20055;-55
2022/07/21 08:17:18;;;;;;;5.72;2.72;;;;;;;;;;5149332;27;20191;-56
2022/07/21 08:19:45;;;;;;;4.32;2.40;;;;;;;;;;5151502;27;20039;-55
2022/07/21 08:22:11;;;;;;;5.15;2.38;;;;;;;;;;5128516;27;20171;-55
2022/07/21 08:24:37;;;;;;;4.07;2.45;;;;;;;;;;5134811;27;20186;-55
2022/07/21 08:27:03;;;;;;;6.65;2.55;;;;;;;;;;5150171;27;20043;-55
2022/07/21 08:29:29;;;;;;;5.13;2.70;;;;;;;;;;5111696;27;20051;-55
2022/07/21 08:31:55;;;;;;;5.05;2.53;;;;;;;;;;5139963;27;20034;-55
2022/07/21 08:34:22;;;;;;;4.25;2.50;;;;;;;;;;5132130;27;20039;-56
2022/07/21 08:36:48;;;;;;;4.00;2.45;;;;;;;;;;5122872;27;20413;-56
2022/07/21 08:39:14;;;;;;;5.03;2.40;;;;;;;;;;5133595;27;20066;-55
2022/07/21 08:41:40;;;;;;;9.10;3.08;;;;;;;;;;5141670;27;20893;-55
2022/07/21 08:44:10;;;;;;;12.27;6.05;;;;;;;;;;5140762;27;20122;-55
2022/07/21 08:46:37;;;;;;;12.05;6.38;;;;;;;;;;5131053;27;20054;-56
2022/07/21 08:49:03;;;;;;;13.50;6.43;;;;;;;;;;5141356;27;20077;-56
2022/07/21 08:51:34;;;;;;;9.52;4.60;;;;;;;;;;5153238;27;20579;-55
2022/07/21 08:54:00;;;;;;;12.65;5.82;;;;;;;;;;5150266;27;20043;-56
2022/07/21 08:56:26;;;;;;;8.73;4.75;;;;;;;;;;5134961;27;20335;-55
2022/07/21 08:58:52;;;;;;;11.25;5.97;;;;;;;;;;5152552;27;20043;-55
2022/07/21 09:01:18;;;;;;;11.13;6.32;;;;;;;;;;5155538;27;20038;-55
2022/07/21 09:03:44;;;;;;;11.90;5.82;;;;;;;;;;5153908;27;20046;-55
2022/07/21 09:06:15;;;;;;;11.30;6.15;;;;;;;;;;5153361;27;20131;-55
2022/07/21 09:08:43;;;;;;;10.77;5.53;;;;;;;;;;5155394;27;20111;-55
2022/07/21 09:11:22;;;;;;;11.65;5.97;;;;;;;;;;5137191;27;20382;-55
2022/07/21 09:14:04;;;;;;;14.38;6.60;;;;;;;;;;5146793;27;20096;-55
2022/07/21 09:16:34;;;;;;;11.55;5.88;;;;;;;;;;5134219;27;20082;-55
2022/07/21 09:19:00;;;;;;;12.48;6.40;;;;;;;;;;5134601;27;20043;-55
2022/07/21 09:21:27;;;;;;;15.35;6.72;;;;;;;;;;5132467;27;20144;-56
2022/07/21 09:23:53;;;;;;;14.95;6.43;;;;;;;;;;5134872;27;20043;-56
2022/07/21 09:26:19;;;;;;;13.25;6.28;;;;;;;;;;5149302;27;20047;-55
2022/07/21 09:28:45;;;;;;;14.10;7.13;;;;;;;;;;5133296;27;20071;-56
2022/07/21 09:31:14;;;;;;;14.85;6.47;;;;;;;;;;5134018;27;20043;-56
2022/07/21 09:33:42;;;;;;;10.93;6.18;;;;;;;;;;5133584;27;20544;-56
2022/07/21 09:36:11;;;;;;;9.85;5.18;;;;;;;;;;5132410;27;20039;-55
2022/07/21 09:38:58;;;;;;;11.63;6.40;;;;;;;;;;5133603;27;20047;-56
2022/07/21 09:41:24;;;;;;;11.50;5.50;;;;;;;;;;5134821;27;20058;-56
2022/07/21 09:43:52;;;;;;;14.18;5.10;;;;;;;;;;5133898;27;20042;-55
2022/07/21 09:46:19;;;;;;;9.90;4.60;;;;;;;;;;5133967;27;20483;-56
2022/07/21 09:48:49;;;;;;;9.88;4.47;;;;;;;;;;5133387;27;20043;-55
2022/07/21 09:51:19;;;;;;;9.20;4.55;;;;;;;;;;5143807;27;20053;-55
2022/07/21 09:53:55;;;;;;;11.18;5.43;;;;;;;;;;5154444;27;20455;-56
2022/07/21 09:56:21;;;;;;;9.70;4.90;;;;;;;;;;5154674;27;20149;-55
2022/07/21 09:58:48;;;;;;;10.10;4.30;;;;;;;;;;5119929;27;20039;-56
2022/07/21 10:01:15;;;;;;;15.43;4.78;;;;;;;;;;5131749;27;20031;-55
2022/07/21 10:03:43;;;;;;;9.65;4.70;;;;;;;;;;5131887;27;20039;-56
2022/07/21 10:06:10;;;;;;;8.63;4.53;;;;;;;;;;5131082;27;20122;-57
2022/07/21 10:08:37;;;;;;;12.75;4.45;;;;;;;;;;5131562;27;20055;-57
2022/07/21 10:11:03;;;;;;;7.63;4.07;;;;;;;;;;5132812;27;20055;-57
2022/07/21 10:13:29;;;;;;;8.95;4.57;;;;;;;;;;5132617;27;20134;-56
2022/07/21 10:15:55;;;;;;;7.57;3.92;;;;;;;;;;5131736;27;20066;-57
2022/07/21 10:18:24;;;;;;;9.13;4.15;;;;;;;;;;5132338;27;20039;-57
2022/07/21 10:20:55;;;;;;;7.63;3.58;;;;;;;;;;5129232;27;20396;-57
2022/07/21 10:23:26;;;;;;;7.53;4.22;;;;;;;;;;5130420;27;20027;-57
2022/07/21 10:25:52;;;;;;;8.50;4.35;;;;;;;;;;5131942;27;20030;-57
2022/07/21 10:28:20;;;;;;;8.73;4.28;;;;;;;;;;5132501;27;20035;-57
2022/07/21 10:30:48;;;;;;;8.40;4.28;;;;;;;;;;5131394;27;20082;-57
2022/07/21 10:33:15;;;;;;;11.75;4.32;;;;;;;;;;5134342;27;20122;-63
2022/07/21 10:35:42;;;;;;;11.68;4.43;;;;;;;;;;5130893;27;20031;-57
2022/07/21 10:38:25;;;;;;;9.40;4.47;;;;;;;;;;5131626;27;20035;-57
2022/07/21 10:40:51;;;;;;;8.82;4.50;;;;;;;;;;5131793;27;20035;-57
2022/07/21 10:43:19;;;;;;;8.98;3.88;;;;;;;;;;5131776;27;20145;-57
2022/07/21 10:45:45;;;;;;;11.05;4.75;;;;;;;;;;5131074;27;20043;-57
2022/07/21 10:48:30;;;;;;;7.25;3.90;;;;;;;;;;5113345;27;20121;-57
2022/07/21 10:50:59;;;;;;;8.23;4.35;;;;;;;;;;5129298;27;20043;-57
2022/07/21 10:53:25;;;;;;;8.05;3.88;;;;;;;;;;5131499;27;20039;-57
2022/07/21 10:55:55;;;;;;;7.82;3.83;;;;;;;;;;5130547;27;20031;-57
2022/07/21 10:58:27;;;;;;;6.65;3.78;;;;;;;;;;5131201;27;20042;-56
2022/07/21 11:00:53;;;;;;;7.90;3.97;;;;;;;;;;5132874;27;20046;-56
2022/07/21 11:03:26;;;;;;;8.20;4.00;;;;;;;;;;5111021;27;20054;-56
2022/07/21 11:06:11;;;;;;;7.25;3.65;;;;;;;;;;5144628;27;20048;-57
2022/07/21 11:08:38;;;;;;;7.63;3.78;;;;;;;;;;5152411;27;20051;-57
2022/07/21 11:11:10;;;;;;;7.43;4.50;;;;;;;;;;5134464;27;20096;-56
2022/07/21 11:13:55;;;;;;;8.95;4.57;;;;;;;;;;5143258;27;20055;-56
2022/07/21 11:16:21;;;;;;;8.48;4.07;;;;;;;;;;5131616;27;20067;-57
2022/07/21 11:18:47;;;;;;;7.70;3.80;;;;;;;;;;5138639;27;20110;-56
2022/07/21 11:21:14;;;;;;;8.43;3.90;;;;;;;;;;5148782;27;20074;-57
2022/07/21 11:23:42;;;;;;;8.15;4.05;;;;;;;;;;5125812;27;20046;-56
2022/07/21 11:26:09;;;;;;;7.93;3.80;;;;;;;;;;5135494;27;20039;-56
2022/07/21 11:28:35;;;;;;;6.53;3.33;;;;;;;;;;5149926;27;20513;-57
2022/07/21 11:31:20;;;;;;;7.65;4.10;;;;;;;;;;5149992;27;20039;-57
2022/07/21 11:33:47;;;;;;;7.30;3.80;;;;;;;;;;5131186;27;20550;-57
2022/07/21 11:36:23;;;;;;;7.00;3.75;;;;;;;;;;5147175;27;20119;-57
2022/07/21 11:38:49;;;;;;;;;;;;;;;;;;5152682;27;20049;-58
2022/07/21 11:41:19;;;;;;;8.00;3.90;;;;;;;;;;5150903;27;19915;-57
2022/07/21 11:43:46;;;;;;;16.13;7.88;;;;;;;;;;5134974;27;20070;-58
2022/07/21 11:46:13;;;;;;;15.48;7.93;;;;;;;;;;5147788;27;20054;-58
2022/07/21 11:48:40;;;;;;;15.05;7.65;;;;;;;;;;5152346;27;20054;-57
2022/07/21 11:51:06;;;;;;;12.98;6.82;;;;;;;;;;5148285;27;20110;-57
2022/07/21 11:53:33;;;;;;;13.32;6.90;;;;;;;;;;5141855;27;20096;-57
2022/07/21 11:55:59;;;;;;;12.63;6.22;;;;;;;;;;5151578;27;20087;-57
2022/07/21 11:58:25;;;;;;;15.90;7.15;;;;;;;;;;5141857;27;20039;-57
2022/07/21 12:01:07;;;;;;;13.05;6.95;;;;;;;;;;5145223;27;20068;-57
2022/07/21 12:03:34;;;;;;;14.38;7.05;;;;;;;;;;5136393;27;20047;-58
2022/07/21 12:06:01;;;;;;;13.35;6.90;;;;;;;;;;5144182;27;20034;-57
2022/07/21 12:08:27;;;;;;;16.48;7.75;;;;;;;;;;5149991;27;20042;-57
2022/07/21 12:11:04;;;;;;;13.52;6.78;;;;;;;;;;5147409;27;20042;-58
2022/07/21 12:13:30;;;;;;;15.85;7.47;;;;;;;;;;5131901;27;20698;-57
2022/07/21 12:15:56;;;;;;;15.52;7.80;;;;;;;;;;5121249;27;20402;-58
2022/07/21 12:18:25;;;;;;;19.17;10.05;;;;;;;;;;5139684;27;20471;-57
2022/07/21 12:21:00;;;;;;;18.83;8.13;;;;;;;;;;5140408;27;20490;-57
2022/07/21 12:23:28;;;;;;;12.40;6.88;;;;;;;;;;5132133;27;20072;-57
2022/07/21 12:25:56;;;;;;;15.52;6.60;;;;;;;;;;5140793;27;20067;-58
2022/07/21 12:28:41;;;;;;;8.45;4.30;;;;;;;;;;5141008;27;20051;-57
2022/07/21 12:31:11;;;;;;;8.73;4.38;;;;;;;;;;5135035;27;20047;-57
2022/07/21 12:33:37;;;;;;;9.60;3.67;;;;;;;;;;5140135;27;20050;-58
2022/07/21 12:36:05;;;;;;;6.45;3.22;;;;;;;;;;5137550;27;20043;-57
2022/07/21 12:38:40;;;;;;;6.20;3.17;;;;;;;;;;5131369;27;20039;-57
2022/07/21 12:41:06;;;;;;;8.05;3.45;;;;;;;;;;5131065;27;20274;-58
2022/07/21 12:43:34;;;;;;;6.18;3.05;;;;;;;;;;5128522;27;20385;-57
2022/07/21 12:46:01;;;;;;;8.57;4.47;;;;;;;;;;5128597;27;20569;-57
2022/07/21 12:48:29;;;;;;;10.48;4.65;;;;;;;;;;5130643;28;20039;-57
2022/07/21 12:51:04;;;;;;;10.63;4.30;;;;;;;;;;5129703;28;20050;-56
2022/07/21 12:53:30;;;;;;;7.40;4.05;;;;;;;;;;5110393;28;20130;-56
2022/07/21 12:55:56;;;;;;;13.13;4.78;;;;;;;;;;5110295;28;20040;-57
2022/07/21 12:58:23;;;;;;;9.35;4.53;;;;;;;;;;5124720;27;20043;-57
2022/07/21 13:00:49;;;;;;;7.38;3.95;;;;;;;;;;5129053;27;20035;-57
2022/07/21 13:03:15;;;;;;;7.88;4.00;;;;;;;;;;5129484;27;20042;-57
2022/07/21 13:05:41;;;;;;;7.30;3.47;;;;;;;;;;5146258;27;20031;-56
2022/07/21 13:08:07;;;;;;;12.73;3.75;;;;;;;;;;5120010;27;20055;-56
2022/07/21 13:10:33;;;;;;;6.35;3.10;;;;;;;;;;5139389;27;20636;-57
2022/07/21 13:13:00;;;;;;;8.05;3.40;;;;;;;;;;5129533;28;20043;-57
2022/07/21 13:15:26;;;;;;;6.50;3.35;;;;;;;;;;5099712;28;20128;-57
2022/07/21 13:17:52;;;;;;;6.32;3.00;;;;;;;;;;5130203;27;20051;-56
2022/07/21 13:20:18;;;;;;;6.47;3.55;;;;;;;;;;5132998;27;20523;-56
2022/07/21 13:22:44;;;;;;;7.47;3.95;;;;;;;;;;5131856;27;20639;-57
2022/07/21 13:25:11;;;;;;;8.70;3.20;;;;;;;;;;5129293;28;20027;-57
2022/07/21 13:27:37;;;;;;;6.82;3.25;;;;;;;;;;5130110;28;20127;-57
2022/07/21 13:30:05;;;;;;;4.82;2.25;;;;;;;;;;5129790;28;20039;-57
2022/07/21 13:32:31;;;;;;;6.88;3.53;;;;;;;;;;5148705;27;20041;-57
2022/07/21 13:34:57;;;;;;;5.95;2.88;;;;;;;;;;5141659;27;20031;-57
2022/07/21 13:37:23;;;;;;;7.85;3.28;;;;;;;;;;5139797;27;20034;-57
2022/07/21 13:39:49;;;;;;;6.15;3.20;;;;;;;;;;5138867;27;20539;-57
2022/07/21 13:42:15;;;;;;;6.28;2.95;;;;;;;;;;5138430;27;20031;-57
2022/07/21 13:44:41;;;;;;;6.80;3.22;;;;;;;;;;5133392;27;20049;-57
2022/07/21 13:47:08;;;;;;;8.85;3.30;;;;;;;;;;5132341;27;20099;-57
2022/07/21 13:49:34;;;;;;;5.50;3.25;;;;;;;;;;5133248;27;20082;-56
2022/07/21 13:52:00;;;;;;;5.32;2.92;;;;;;;;;;5130651;27;20046;-57
2022/07/21 13:54:26;;;;;;;6.50;3.38;;;;;;;;;;5132931;27;20043;-57
2022/07/21 13:56:52;;;;;;;6.85;3.42;;;;;;;;;;5132425;27;20046;-57
2022/07/21 13:59:18;;;;;;;7.90;3.67;;;;;;;;;;5133769;27;20081;-57
2022/07/21 14:01:44;;;;;;;5.75;3.00;;;;;;;;;;5139967;27;20482;-57
2022/07/21 14:04:10;;;;;;;5.50;2.92;;;;;;;;;;5132305;27;20094;-57
2022/07/21 14:06:36;;;;;;;6.43;3.53;;;;;;;;;;5130970;27;20054;-57
2022/07/21 14:09:03;;;;;;;6.30;3.20;;;;;;;;;;5114192;27;20371;-56
2022/07/21 14:11:29;;;;;;;7.97;2.80;;;;;;;;;;5112738;27;20040;-56
2022/07/21 14:13:56;;;;;;;6.43;2.75;;;;;;;;;;5132143;27;20478;-56
2022/07/21 14:16:22;;;;;;;5.70;2.83;;;;;;;;;;5132314;27;20423;-57
2022/07/21 14:18:48;;;;;;;5.30;2.83;;;;;;;;;;5132504;27;20036;-56
2022/07/21 14:21:14;;;;;;;5.65;2.70;;;;;;;;;;5136685;27;20034;-57
2022/07/21 14:23:41;;;;;;;5.35;2.85;;;;;;;;;;5139396;27;20053;-57
2022/07/21 14:26:07;;;;;;;6.10;2.75;;;;;;;;;;5153695;27;20042;-57
2022/07/21 14:28:33;;;;;;;4.80;2.40;;;;;;;;;;5154179;27;20051;-57
2022/07/21 14:30:59;;;;;;;5.45;2.88;;;;;;;;;;5153079;27;20132;-56
2022/07/21 14:33:26;;;;;;;10.50;3.05;;;;;;;;;;5153908;27;20117;-56
2022/07/21 14:35:52;;;;;;;5.43;3.08;;;;;;;;;;5152428;27;20046;-56
2022/07/21 14:38:20;;;;;;;5.95;2.78;;;;;;;;;;5152510;27;20042;-56
2022/07/21 14:40:46;;;;;;;5.03;2.50;;;;;;;;;;5154175;27;20050;-57
2022/07/21 14:43:12;;;;;;;5.88;2.80;;;;;;;;;;5152013;27;20543;-57